Time;durP1;ratioP1;P1;durP2;ratioP2;P2;SDS_P1;SDS_P2;PMS_P1;PMS_P2;Temp;Humidity;BMP_temperature;BMP_pressure;BME280_temperature;BME280_humidity;BME280_pressure;Samples;Min_cycle;Max_cycle;Signal;HPM_P1;HPM_P2
2024/01/02 00:00:05;;;;;;;17.67;3.53;;;;;;;9.53;100.00;97274.16;4980851;28;20045;-93
2024/01/02 00:02:38;;;;;;;22.70;2.67;;;;;;;9.50;100.00;97275.41;4981638;28;20148;-91
2024/01/02 00:05:04;;;;;;;17.38;3.08;;;;;;;9.48;100.00;97264.25;4961190;28;20038;-91
2024/01/02 00:07:30;;;;;;;19.80;3.80;;;;;;;9.47;100.00;97254.75;4983091;28;20052;-92
2024/01/02 00:09:56;;;;;;;20.08;3.10;;;;;;;9.50;100.00;97261.41;4983975;28;20038;-93
2024/01/02 00:12:21;;;;;;;26.15;4.10;;;;;;;9.48;100.00;97269.53;4980607;28;20098;-94
2024/01/02 00:14:47;;;;;;;26.88;3.42;;;;;;;9.51;100.00;97276.19;4973151;28;20034;-94
2024/01/02 00:17:14;;;;;;;28.90;4.38;;;;;;;9.54;100.00;97266.03;4964625;28;20027;-92
2024/01/02 00:19:39;;;;;;;19.90;3.95;;;;;;;9.59;100.00;97267.22;4977304;28;20038;-94
2024/01/02 00:22:05;;;;;;;26.90;4.32;;;;;;;9.66;100.00;97275.88;4981745;28;20371;-92
2024/01/02 00:24:31;;;;;;;21.60;4.47;;;;;;;9.68;100.00;97276.47;4965814;28;20037;-92
2024/01/02 00:26:57;;;;;;;19.17;3.60;;;;;;;9.66;100.00;97278.50;4980926;28;20053;-94
2024/01/02 00:29:23;;;;;;;17.35;3.05;;;;;;;9.60;100.00;97255.66;4956090;28;20042;-94
2024/01/02 00:31:49;;;;;;;22.75;3.25;;;;;;;9.58;100.00;97265.59;4997716;28;20030;-93
2024/01/02 00:34:14;;;;;;;17.88;3.67;;;;;;;9.49;100.00;97271.13;4978106;28;20034;-94
2024/01/02 00:36:41;;;;;;;16.92;3.60;;;;;;;9.51;100.00;97282.28;4966468;28;20040;-94
2024/01/02 00:39:07;;;;;;;18.95;3.25;;;;;;;9.44;100.00;97284.19;4981129;28;20113;-95
2024/01/02 00:41:33;;;;;;;25.40;3.38;;;;;;;9.40;100.00;97291.72;4981221;28;20065;-96
2024/01/02 00:43:59;;;;;;;23.60;4.88;;;;;;;9.35;100.00;97283.63;4979268;28;20034;-95
2024/01/02 00:46:25;;;;;;;23.50;3.33;;;;;;;9.26;100.00;97275.19;4979680;28;20598;-96
2024/01/02 00:48:51;;;;;;;22.35;3.05;;;;;;;9.27;100.00;97284.69;4982405;28;20033;-96
2024/01/02 00:51:16;;;;;;;22.52;3.47;;;;;;;9.26;100.00;97293.63;4971635;28;20037;-95
2024/01/02 00:53:42;;;;;;;21.98;3.88;;;;;;;9.24;100.00;97294.84;4982451;28;20518;-96
2024/01/02 00:56:08;;;;;;;18.27;3.55;;;;;;;9.23;100.00;97293.25;4966178;28;20789;-94
2024/01/02 00:58:34;;;;;;;18.27;3.40;;;;;;;9.26;100.00;97287.56;4975042;28;20116;-94
2024/01/02 01:01:00;;;;;;;23.92;3.17;;;;;;;9.26;100.00;97271.75;4962047;28;20386;-92
2024/01/02 01:03:26;;;;;;;17.80;3.33;;;;;;;9.22;100.00;97268.72;4971715;28;20386;-96
2024/01/02 01:05:51;;;;;;;25.83;4.00;;;;;;;9.17;100.00;97255.41;4993636;28;20034;-96
2024/01/02 01:08:17;;;;;;;19.98;2.83;;;;;;;9.17;100.00;97264.09;4980247;28;20864;-94
2024/01/02 01:10:53;;;;;;;21.98;3.50;;;;;;;9.16;100.00;97272.22;4960486;28;20093;-94
2024/01/02 01:13:59;;;;;;;23.33;3.28;;;;;;;9.13;100.00;97270.81;4982903;28;20042;-96
2024/01/02 01:16:29;;;;;;;25.83;4.00;;;;;;;9.08;100.00;97269.84;4978730;28;20042;-94
2024/01/02 01:18:55;;;;;;;12.43;2.45;;;;;;;9.08;100.00;97269.84;4965536;28;20037;-94
2024/01/02 01:21:24;;;;;;;21.08;3.60;;;;;;;9.08;100.00;97286.44;4952100;28;20045;-95
2024/01/02 01:24:01;;;;;;;20.83;3.17;;;;;;;9.02;100.00;97261.78;4955713;28;20490;-96
2024/01/02 01:26:43;;;;;;;16.48;2.72;;;;;;;9.07;100.00;97269.03;4957454;28;20137;-95
2024/01/02 01:29:09;;;;;;;15.60;2.85;;;;;;;9.03;100.00;97271.28;4955070;28;20097;-96
2024/01/02 01:31:51;;;;;;;;;;;;;;;;;;;;;
2024/01/02 01:34:24;;;;;;;23.70;3.25;;;;;;;9.08;100.00;97285.66;4970504;28;20033;-96
2024/01/02 01:36:59;;;;;;;24.48;3.25;;;;;;;9.15;100.00;97286.41;4979561;28;20034;-96
2024/01/02 01:39:32;;;;;;;18.90;3.55;;;;;;;9.15;100.00;97295.13;4984265;28;20033;-95
2024/01/02 01:42:05;;;;;;;20.38;2.95;;;;;;;9.15;100.00;97284.59;4980437;28;20451;-95
2024/01/02 01:44:38;;;;;;;30.17;3.70;;;;;;;9.05;100.00;97281.59;4972666;28;20211;-95
2024/01/02 01:47:22;;;;;;;;;;;;;;;;;;;;;
2024/01/02 01:50:22;;;;;;;24.73;3.65;;;;;;;9.06;100.00;97291.94;4973376;28;20070;-95
2024/01/02 01:52:55;;;;;;;27.70;3.97;;;;;;;8.99;100.00;97282.47;4965144;28;20097;-95
2024/01/02 01:55:24;;;;;;;24.88;3.50;;;;;;;9.00;100.00;97289.38;4995823;28;20026;-95
2024/01/02 01:57:52;;;;;;;18.38;3.13;;;;;;;8.95;100.00;97278.66;5004103;28;20040;-95
2024/01/02 02:00:32;;;;;;;29.88;4.30;;;;;;;8.92;100.00;97271.97;4967821;28;20046;-96
2024/01/02 02:03:01;;;;;;;18.00;3.38;;;;;;;8.95;100.00;97276.00;4970909;28;20098;-96
2024/01/02 02:05:46;;;;;;;23.40;3.83;;;;;;;8.96;100.00;97273.16;4957373;28;20089;-95
2024/01/02 02:08:12;;;;;;;21.60;3.80;;;;;;;8.91;100.00;97263.28;4977598;28;20604;-96
2024/01/02 02:10:51;;;;;;;24.23;3.45;;;;;;;8.90;100.00;97256.38;4969727;28;20065;-95
2024/01/02 02:13:20;;;;;;;26.02;3.80;;;;;;;8.96;100.00;97262.63;4969875;28;20041;-96
2024/01/02 02:15:49;;;;;;;29.70;5.63;;;;;;;9.01;100.00;97268.06;4962481;28;20455;-96
2024/01/02 02:18:23;;;;;;;23.90;3.00;;;;;;;8.95;100.00;97253.09;4965385;28;20079;-96
2024/01/02 02:21:26;;;;;;;30.50;4.45;;;;;;;9.04;100.00;97262.38;4989468;28;20033;-96
2024/01/02 02:24:02;;;;;;;26.77;5.07;;;;;;;8.99;100.00;97261.38;4998611;28;20042;-95
2024/01/02 02:26:28;;;;;;;31.38;4.28;;;;;;;8.97;100.00;97268.69;4962013;28;20049;-96
2024/01/02 02:28:58;;;;;;;22.00;3.28;;;;;;;8.96;100.00;97262.63;4962250;28;20029;-96
2024/01/02 02:31:24;;;;;;;25.77;3.72;;;;;;;8.92;100.00;97251.69;4981278;28;20041;-95
2024/01/02 02:33:50;;;;;;;30.58;4.03;;;;;;;8.97;100.00;97252.88;4980820;28;20042;-96
2024/01/02 02:36:16;;;;;;;25.00;3.47;;;;;;;8.95;100.00;97252.31;4977239;28;20509;-96
2024/01/02 02:38:41;;;;;;;24.23;3.85;;;;;;;8.90;100.00;97237.16;4975692;28;20071;-96
2024/01/02 02:41:08;;;;;;;24.30;4.13;;;;;;;8.90;100.00;97247.69;4979482;28;20077;-95
2024/01/02 02:43:34;;;;;;;21.35;2.78;;;;;;;8.87;100.00;97235.72;4965243;28;20577;-93
2024/01/02 02:46:00;;;;;;;22.20;3.15;;;;;;;8.83;100.00;97245.09;4975198;28;20038;-95
2024/01/02 02:48:26;;;;;;;21.00;3.35;;;;;;;8.81;100.00;97247.94;4963001;28;20092;-96
2024/01/02 02:50:52;;;;;;;16.08;2.15;;;;;;;8.80;100.00;97248.97;4973824;28;20108;-96
2024/01/02 02:53:18;;;;;;;25.90;2.55;;;;;;;8.74;100.00;97244.53;4980733;28;20127;-95
2024/01/02 02:55:44;;;;;;;29.30;3.95;;;;;;;8.67;100.00;97226.13;4959016;28;20145;-95
2024/01/02 02:58:10;;;;;;;17.88;2.92;;;;;;;8.70;100.00;97224.91;4996761;28;20490;-94
2024/01/02 03:00:35;;;;;;;17.58;2.65;;;;;;;8.74;100.00;97220.03;4990263;28;20504;-95
2024/01/02 03:03:02;;;;;;;16.80;2.83;;;;;;;8.76;100.00;97216.16;4979091;28;20026;-96
2024/01/02 03:05:29;;;;;;;21.50;3.67;;;;;;;8.75;100.00;97216.38;4979449;28;20033;-93
2024/01/02 03:07:56;;;;;;;19.80;3.33;;;;;;;8.76;100.00;97218.78;4956628;28;20038;-96
2024/01/02 03:10:22;;;;;;;29.42;4.20;;;;;;;8.83;100.00;97217.94;4985917;28;20033;-94
2024/01/02 03:12:48;;;;;;;18.10;2.80;;;;;;;8.80;100.00;97227.88;4985768;28;20524;-96
2024/01/02 03:15:14;;;;;;;19.92;2.20;;;;;;;8.82;100.00;97225.03;4984072;28;20492;-96
2024/01/02 03:17:41;;;;;;;27.90;3.85;;;;;;;8.83;100.00;97215.28;4980110;28;20431;-94
2024/01/02 03:20:07;;;;;;;24.08;3.13;;;;;;;8.84;100.00;97227.47;4995698;28;20493;-96
2024/01/02 03:22:33;;;;;;;19.95;2.85;;;;;;;8.81;100.00;97218.13;4982463;28;20037;-95
2024/01/02 03:24:59;;;;;;;22.25;3.22;;;;;;;8.82;100.00;97225.03;4990561;28;20494;-96
2024/01/02 03:27:25;;;;;;;26.60;3.70;;;;;;;8.84;100.00;97217.72;4984594;28;20053;-96
2024/01/02 03:29:51;;;;;;;20.23;3.03;;;;;;;8.78;100.00;97208.84;4961008;28;20042;-96
2024/01/02 03:32:17;;;;;;;19.85;3.50;;;;;;;8.78;100.00;97215.94;4977930;28;20384;-96
2024/01/02 03:34:42;;;;;;;18.30;2.85;;;;;;;8.77;100.00;97201.16;4962961;28;20044;-96
2024/01/02 03:37:08;;;;;;;20.33;2.55;;;;;;;8.81;100.00;97202.34;5007948;28;20192;-94
2024/01/02 03:39:34;;;;;;;18.50;3.10;;;;;;;8.82;100.00;97211.88;5000444;28;20026;-94
2024/01/02 03:42:00;;;;;;;25.75;2.53;;;;;;;8.80;100.00;97200.75;4977395;28;20027;-95
2024/01/02 03:44:26;;;;;;;19.55;2.42;;;;;;;8.80;100.00;97196.28;4975121;28;20038;-95
2024/01/02 03:46:51;;;;;;;26.23;4.32;;;;;;;8.80;100.00;97195.47;4960979;28;20029;-95
2024/01/02 03:49:18;;;;;;;20.25;3.22;;;;;;;8.80;100.00;97193.66;4987053;28;20033;-96
2024/01/02 03:51:44;;;;;;;21.05;2.83;;;;;;;8.83;100.00;97192.41;4981224;28;20498;-94
2024/01/02 03:54:10;;;;;;;18.25;2.67;;;;;;;8.81;100.00;97186.53;4978995;28;20042;-95
2024/01/02 03:56:36;;;;;;;23.60;2.60;;;;;;;8.79;100.00;97178.06;4977289;28;20178;-96
2024/01/02 03:59:02;;;;;;;17.27;2.55;;;;;;;8.78;100.00;97173.81;4969438;28;20549;-96
2024/01/02 04:01:28;;;;;;;15.18;2.70;;;;;;;8.75;100.00;97175.03;4966311;28;20387;-96
2024/01/02 04:03:55;;;;;;;22.83;3.00;;;;;;;8.66;100.00;97161.31;4985514;28;20034;-95
2024/01/02 04:06:21;;;;;;;19.13;2.58;;;;;;;8.68;100.00;97159.28;4988303;28;20038;-96
2024/01/02 04:08:47;;;;;;;23.70;3.00;;;;;;;8.69;100.00;97163.53;4975479;28;20030;-96
2024/01/02 04:11:16;;;;;;;19.42;3.10;;;;;;;8.67;100.00;97164.75;4973270;28;20045;-94
2024/01/02 04:13:41;;;;;;;25.65;3.00;;;;;;;8.65;100.00;97161.53;4967271;28;20541;-96
2024/01/02 04:16:07;;;;;;;12.23;1.52;;;;;;;8.64;100.00;97149.41;4981257;28;20149;-94
2024/01/02 04:18:33;;;;;;;20.70;2.70;;;;;;;8.62;100.00;97143.53;4964561;28;20038;-94
2024/01/02 04:20:59;;;;;;;18.58;2.20;;;;;;;8.61;100.00;97141.94;4980742;28;20082;-96
2024/01/02 04:23:25;;;;;;;18.38;2.83;;;;;;;8.63;100.00;97142.53;4984639;28;20481;-96
2024/01/02 04:25:51;;;;;;;29.15;4.22;;;;;;;8.62;100.00;97135.63;4975999;28;20491;-96
2024/01/02 04:28:17;;;;;;;21.95;3.33;;;;;;;8.63;100.00;97145.16;4965327;28;20084;-95
2024/01/02 04:30:43;;;;;;;27.50;3.25;;;;;;;8.61;100.00;97128.75;4982661;28;20096;-93
2024/01/02 04:33:08;;;;;;;18.17;2.25;;;;;;;8.58;100.00;97121.28;4963663;28;20041;-95
2024/01/02 04:35:35;;;;;;;27.58;3.60;;;;;;;8.56;100.00;97119.69;4998209;28;20112;-96
2024/01/02 04:38:01;;;;;;;24.48;2.95;;;;;;;8.49;100.00;97118.88;4992221;28;20487;-96
2024/01/02 04:40:26;;;;;;;26.08;2.42;;;;;;;8.43;100.00;97107.41;4984613;28;20038;-96
2024/01/02 04:42:52;;;;;;;23.45;2.80;;;;;;;8.40;100.00;97093.84;5008348;28;20419;-96
2024/01/02 04:45:18;;;;;;;24.98;3.00;;;;;;;8.34;100.00;97100.78;4989956;28;20507;-96
2024/01/02 04:47:44;;;;;;;17.55;2.15;;;;;;;8.32;100.00;97101.00;4960003;28;20035;-95
2024/01/02 04:50:10;;;;;;;22.48;2.60;;;;;;;8.33;100.00;97104.41;4966254;28;20487;-96
2024/01/02 04:52:35;;;;;;;21.35;2.70;;;;;;;8.31;100.00;97091.47;4980810;28;20042;-95
2024/01/02 04:55:01;;;;;;;17.83;2.83;;;;;;;8.36;100.00;97097.94;4983248;28;20038;-96
2024/01/02 04:57:27;;;;;;;20.25;2.95;;;;;;;8.35;100.00;97096.31;5002388;28;20068;-96
2024/01/02 04:59:53;;;;;;;24.13;3.63;;;;;;;8.41;100.00;97092.81;4965823;28;20045;-96
2024/01/02 05:02:22;;;;;;;20.23;3.30;;;;;;;8.41;100.00;97077.03;4985974;28;20026;-95
2024/01/02 05:04:49;;;;;;;15.90;2.88;;;;;;;8.40;100.00;97072.78;4981286;28;20062;-96
2024/01/02 05:07:15;;;;;;;21.00;4.10;;;;;;;8.42;100.00;97084.75;4980663;28;20033;-96
2024/01/02 05:09:41;;;;;;;27.73;3.88;;;;;;;8.42;100.00;97076.03;4963841;28;20038;-96
2024/01/02 05:12:07;;;;;;;21.33;3.13;;;;;;;8.41;100.00;97071.78;4973728;28;20487;-96
2024/01/02 05:14:33;;;;;;;22.17;2.30;;;;;;;8.42;100.00;97081.28;4979355;28;20057;-96
2024/01/02 05:16:59;;;;;;;16.70;2.60;;;;;;;8.38;100.00;97072.19;4975286;28;20037;-94
2024/01/02 05:19:24;;;;;;;20.45;3.63;;;;;;;8.42;100.00;97065.50;4965703;28;20029;-95
2024/01/02 05:21:53;;;;;;;35.22;4.15;;;;;;;8.47;100.00;97057.78;4962678;28;20036;-95
2024/01/02 05:24:19;;;;;;;26.48;3.35;;;;;;;8.49;100.00;97036.50;4977484;28;20459;-94
2024/01/02 05:26:44;;;;;;;18.85;3.05;;;;;;;8.54;100.00;97039.28;4976716;28;20065;-96
2024/01/02 05:29:10;;;;;;;20.80;3.58;;;;;;;8.55;100.00;97047.00;4978964;28;20040;-95
2024/01/02 05:31:36;;;;;;;28.42;3.17;;;;;;;8.58;100.00;97048.41;4965169;28;20237;-96
2024/01/02 05:34:02;;;;;;;18.45;3.08;;;;;;;8.61;100.00;97041.88;4983212;28;20032;-95
2024/01/02 05:36:28;;;;;;;30.95;3.90;;;;;;;8.59;100.00;97030.75;4960936;28;20034;-95
2024/01/02 05:38:54;;;;;;;21.48;3.13;;;;;;;8.61;100.00;97032.19;4975720;28;20034;-96
2024/01/02 05:41:19;;;;;;;21.08;3.08;;;;;;;8.67;100.00;97039.22;4963836;28;20042;-95
2024/01/02 05:43:45;;;;;;;24.48;3.63;;;;;;;8.72;100.00;97038.56;4975969;28;20089;-94
2024/01/02 05:46:11;;;;;;;25.30;3.05;;;;;;;8.76;100.00;97018.66;4969871;28;20038;-95
2024/01/02 05:48:37;;;;;;;22.08;3.42;;;;;;;8.77;100.00;97022.09;4980827;28;20042;-96
2024/01/02 05:51:06;;;;;;;25.15;4.43;;;;;;;8.89;100.00;97019.53;4960776;28;20459;-94
2024/01/02 05:53:32;;;;;;;18.98;2.17;;;;;;;8.82;100.00;97019.63;4976912;28;20035;-94
2024/01/02 05:55:57;;;;;;;18.75;3.13;;;;;;;8.88;100.00;97031.09;4962343;28;20042;-96
2024/01/02 05:58:23;;;;;;;28.48;3.67;;;;;;;8.89;100.00;97028.25;4981901;28;20393;-96
2024/01/02 06:00:49;;;;;;;24.75;2.78;;;;;;;8.92;100.00;97033.09;4982042;28;20034;-96
2024/01/02 06:03:15;;;;;;;29.30;3.17;;;;;;;8.92;100.00;97022.56;4979120;28;20037;-95
2024/01/02 06:05:41;;;;;;;25.02;2.80;;;;;;;8.95;100.00;97015.25;4981917;28;20041;-95
2024/01/02 06:08:06;;;;;;;25.15;3.65;;;;;;;8.94;100.00;97009.16;4993041;28;20799;-95
2024/01/02 06:10:32;;;;;;;25.73;3.05;;;;;;;8.95;100.00;96999.44;4995251;28;20033;-96
2024/01/02 06:12:58;;;;;;;28.80;4.10;;;;;;;8.96;100.00;97001.84;4970026;28;20034;-96
2024/01/02 06:15:24;;;;;;;27.98;3.20;;;;;;;8.98;100.00;96997.16;4965754;28;20513;-95
2024/01/02 06:17:50;;;;;;;24.13;2.75;;;;;;;9.00;100.00;96997.75;4959381;28;20065;-94
2024/01/02 06:20:15;;;;;;;25.70;3.15;;;;;;;9.01;100.00;97002.00;4964111;28;20108;-94
2024/01/02 06:22:41;;;;;;;26.33;4.50;;;;;;;8.99;100.00;96988.25;4998277;28;20069;-95
2024/01/02 06:25:10;;;;;;;22.42;3.70;;;;;;;9.02;100.00;96995.72;4985809;28;20490;-95
2024/01/02 06:27:36;;;;;;;22.42;3.03;;;;;;;9.03;100.00;96991.25;4996143;28;20045;-95
2024/01/02 06:30:07;;;;;;;27.45;3.22;;;;;;;9.05;100.00;96986.56;4970022;28;20045;-96
2024/01/02 06:32:33;;;;;;;24.08;3.50;;;;;;;9.04;100.00;96980.50;4972111;28;20034;-96
2024/01/02 06:34:59;;;;;;;28.67;3.65;;;;;;;9.13;100.00;96986.25;5000913;28;20038;-96
2024/01/02 06:37:25;;;;;;;26.23;3.50;;;;;;;9.07;100.00;96968.69;4977471;28;20036;-96
2024/01/02 06:39:51;;;;;;;25.45;3.17;;;;;;;9.13;100.00;96980.19;4972875;28;20026;-96
2024/01/02 06:42:17;;;;;;;35.92;4.82;;;;;;;9.14;100.00;96979.16;4957821;28;20058;-96
2024/01/02 06:44:43;;;;;;;26.65;3.38;;;;;;;9.13;100.00;96967.00;4964419;28;20542;-96
2024/01/02 06:47:09;;;;;;;21.92;3.95;;;;;;;9.18;100.00;96969.78;4973178;28;20033;-96
2024/01/02 06:49:35;;;;;;;40.78;5.15;;;;;;;9.15;100.00;96964.97;4983563;28;20446;-96
2024/01/02 06:52:01;;;;;;;19.58;3.08;;;;;;;9.14;100.00;96960.72;4976888;28;20041;-96
2024/01/02 06:54:27;;;;;;;30.38;3.67;;;;;;;9.13;100.00;96965.19;4957027;28;20099;-94
2024/01/02 06:56:52;;;;;;;28.35;3.70;;;;;;;9.12;100.00;96954.88;4983364;28;20362;-93
2024/01/02 06:59:18;;;;;;;20.08;2.83;;;;;;;9.14;100.00;96950.97;4980251;28;20033;-96
2024/01/02 07:01:45;;;;;;;37.58;4.30;;;;;;;9.08;100.00;96937.91;5007552;28;20516;-96
2024/01/02 07:04:12;;;;;;;29.45;4.00;;;;;;;9.14;100.00;96947.56;4986866;28;20034;-96
2024/01/02 07:06:38;;;;;;;26.35;3.25;;;;;;;9.12;100.00;96942.50;4957542;28;20068;-96
2024/01/02 07:09:04;;;;;;;32.80;3.38;;;;;;;9.11;100.00;96934.81;4982702;28;20061;-96
2024/01/02 07:11:31;;;;;;;27.67;3.58;;;;;;;9.15;100.00;96936.78;4994051;28;20045;-94
2024/01/02 07:13:57;;;;;;;44.22;4.20;;;;;;;9.13;100.00;96933.56;4990071;28;20029;-92
2024/01/02 07:16:23;;;;;;;26.30;4.47;;;;;;;9.08;100.00;96922.09;4978777;28;20494;-95
2024/01/02 07:18:50;;;;;;;27.02;3.35;;;;;;;9.09;100.00;96921.06;4982953;28;20030;-94
2024/01/02 07:21:16;;;;;;;27.88;3.67;;;;;;;9.08;100.00;96917.63;4954935;28;20069;-96
2024/01/02 07:23:42;;;;;;;26.92;3.58;;;;;;;9.05;100.00;96918.88;4980526;28;20120;-95
2024/01/02 07:26:08;;;;;;;24.08;3.47;;;;;;;9.03;100.00;96915.66;4975069;28;20078;-94
2024/01/02 07:28:35;;;;;;;25.73;3.03;;;;;;;9.06;100.00;96912.56;4948399;28;20111;-94
2024/01/02 07:31:02;;;;;;;35.53;4.72;;;;;;;9.03;100.00;96907.75;4955800;28;20039;-96
2024/01/02 07:33:27;;;;;;;26.67;3.47;;;;;;;9.02;100.00;96902.69;4976004;28;20097;-96
2024/01/02 07:35:53;;;;;;;25.00;3.95;;;;;;;9.04;100.00;96903.28;4951306;28;20038;-96
2024/01/02 07:38:19;;;;;;;32.42;4.05;;;;;;;9.05;100.00;96900.44;4951696;28;20066;-96
2024/01/02 07:40:45;;;;;;;26.35;3.13;;;;;;;9.04;100.00;96900.66;4964413;28;20145;-96
2024/01/02 07:43:28;;;;;;;32.40;4.03;;;;;;;8.97;100.00;96892.81;5072867;23;20587;-94
2024/01/02 07:46:09;;;;;;;22.45;3.47;;;;;;;9.03;100.00;96897.22;5008813;28;20045;-93
2024/01/02 07:48:58;;;;;;;28.60;3.47;;;;;;;9.02;100.00;96894.78;5006331;28;20044;-93
2024/01/02 07:51:34;;;;;;;33.88;4.35;;;;;;;8.97;100.00;96892.00;5015180;28;20059;-93
2024/01/02 07:54:29;;;;;;;25.90;4.15;;;;;;;8.98;100.00;96883.88;5021725;28;20090;-93
2024/01/02 07:57:28;;;;;;;34.03;3.97;;;;;;;8.95;100.00;96891.44;5065426;28;20022;-96
2024/01/02 08:00:13;;;;;;;30.30;3.85;;;;;;;8.92;100.00;96885.59;5044251;28;20045;-95
2024/01/02 08:02:39;;;;;;;26.95;3.38;;;;;;;8.89;100.00;96883.41;4998712;28;20126;-96
2024/01/02 08:05:05;;;;;;;27.55;2.70;;;;;;;8.90;100.00;96890.28;5018173;23;20069;-96
2024/01/02 08:07:30;;;;;;;26.52;3.05;;;;;;;8.89;100.00;96885.22;4998789;28;20393;-96
2024/01/02 08:09:56;;;;;;;43.60;4.95;;;;;;;8.87;100.00;96880.19;5022690;28;20036;-96
2024/01/02 08:12:22;;;;;;;39.58;5.10;;;;;;;8.87;100.00;96877.53;5018007;28;20478;-96
2024/01/02 08:14:48;;;;;;;34.28;4.10;;;;;;;8.85;100.00;96874.34;5000515;28;20127;-95
2024/01/02 08:17:15;;;;;;;31.80;3.42;;;;;;;8.81;100.00;96863.44;5021030;28;20087;-95
2024/01/02 08:19:41;;;;;;;34.95;4.35;;;;;;;8.86;100.00;96862.78;5012372;28;20033;-95
2024/01/02 08:22:07;;;;;;;26.40;3.42;;;;;;;8.85;100.00;96858.56;5017216;28;20556;-95
2024/01/02 08:24:33;;;;;;;29.63;3.15;;;;;;;8.84;100.00;96850.88;5036669;28;20051;-95
2024/01/02 08:26:59;;;;;;;23.58;3.10;;;;;;;8.84;100.00;96850.88;5001149;28;20041;-95
2024/01/02 08:29:24;;;;;;;33.88;4.55;;;;;;;8.86;100.00;96856.69;5002956;28;20132;-96
2024/01/02 08:31:50;;;;;;;25.40;3.88;;;;;;;8.87;100.00;96850.44;5002356;28;20040;-96
2024/01/02 08:34:16;;;;;;;31.10;3.20;;;;;;;8.86;100.00;96854.88;4994820;28;20041;-96
2024/01/02 08:36:43;;;;;;;29.10;3.20;;;;;;;8.85;100.00;96852.47;5003047;28;20820;-96
2024/01/02 08:39:09;;;;;;;29.48;3.28;;;;;;;8.88;100.00;96850.19;5015354;28;20025;-95
2024/01/02 08:41:36;;;;;;;32.17;3.60;;;;;;;8.88;100.00;96847.56;5004350;28;20128;-96
2024/01/02 08:44:03;;;;;;;33.08;4.05;;;;;;;8.88;100.00;96841.50;4996405;28;20057;-96
2024/01/02 08:46:28;;;;;;;26.05;3.38;;;;;;;8.88;100.00;96846.75;5004288;28;20025;-96
2024/01/02 08:48:54;;;;;;;35.88;4.07;;;;;;;8.89;100.00;96846.53;5030326;28;20054;-96
2024/01/02 08:51:21;;;;;;;26.40;3.67;;;;;;;8.91;100.00;96851.56;5034653;28;20635;-95
2024/01/02 08:53:47;;;;;;;35.10;3.63;;;;;;;8.90;100.00;96848.13;5001738;28;20033;-96
2024/01/02 08:56:13;;;;;;;24.23;3.85;;;;;;;8.90;100.00;96839.44;5014058;28;20034;-96
2024/01/02 08:58:38;;;;;;;30.60;3.42;;;;;;;8.92;100.00;96832.09;5014407;28;20033;-96
2024/01/02 09:01:05;;;;;;;33.33;3.42;;;;;;;8.92;100.00;96832.91;5014579;28;20401;-96
2024/01/02 09:03:31;;;;;;;29.17;3.55;;;;;;;8.95;100.00;96830.88;5007137;28;20040;-96
2024/01/02 09:05:57;;;;;;;30.10;4.20;;;;;;;8.95;100.00;96823.75;5032930;28;20057;-95
2024/01/02 09:08:22;;;;;;;25.73;3.00;;;;;;;8.95;100.00;96823.75;5018566;28;20035;-96
2024/01/02 09:10:48;;;;;;;22.70;2.88;;;;;;;8.96;100.00;96822.75;5014206;28;20477;-96
2024/01/02 09:13:14;;;;;;;29.70;4.03;;;;;;;8.93;100.00;96815.28;5034231;28;20475;-96
2024/01/02 09:15:46;;;;;;;38.33;4.22;;;;;;;9.00;100.00;96820.47;5028422;28;20052;-96
2024/01/02 09:18:39;;;;;;;24.15;3.35;;;;;;;8.95;100.00;96815.06;5039504;28;20037;-96
2024/01/02 09:21:18;;;;;;;28.10;3.60;;;;;;;8.98;100.00;96810.13;5032930;28;20036;-96
2024/01/02 09:23:44;;;;;;;29.65;2.92;;;;;;;8.91;100.00;96814.72;5026754;28;20124;-96
2024/01/02 09:26:14;;;;;;;32.88;4.00;;;;;;;8.93;100.00;96802.13;5044454;28;20131;-95
2024/01/02 09:28:43;;;;;;;34.88;3.13;;;;;;;8.90;100.00;96798.09;5021221;28;20123;-95
2024/01/02 09:31:09;;;;;;;32.45;3.67;;;;;;;8.90;100.00;96805.22;5013353;28;20132;-95
2024/01/02 09:33:38;;;;;;;22.83;3.00;;;;;;;8.89;100.00;96795.69;5001108;28;20115;-96
2024/01/02 09:36:10;;;;;;;28.65;2.85;;;;;;;8.96;100.00;96804.31;4999380;28;20504;-96
2024/01/02 09:38:40;;;;;;;29.38;2.92;;;;;;;8.93;100.00;96795.00;5001725;28;20040;-95
2024/01/02 09:41:52;;;;;;;29.67;3.38;;;;;;;8.95;100.00;96800.06;5029289;28;20124;-96
2024/01/02 09:44:24;;;;;;;21.20;3.72;;;;;;;8.95;100.00;96805.31;4995056;28;20065;-95
2024/01/02 09:47:05;;;;;;;29.55;3.53;;;;;;;8.96;100.00;96806.13;5001574;28;20032;-96
2024/01/02 09:50:09;;;;;;;25.45;3.40;;;;;;;8.96;100.00;96799.03;4996743;28;20029;-96
2024/01/02 09:53:18;;;;;;;35.42;6.15;;;;;;;8.98;100.00;96801.44;5028999;28;20034;-96
2024/01/02 09:56:19;;;;;;;34.13;5.45;;;;;;;8.98;100.00;96804.88;5038664;28;20038;-96
2024/01/02 09:59:12;;;;;;;28.85;4.32;;;;;;;8.98;100.00;96798.81;5018492;28;20052;-96
2024/01/02 10:01:58;;;;;;;34.22;11.65;;;;;;;9.03;100.00;96796.31;5000099;28;20190;-96
2024/01/02 10:04:42;;;;;;;38.80;13.20;;;;;;;9.03;100.00;96797.09;5033566;28;20128;-95
2024/01/02 10:07:20;;;;;;;88.88;47.50;;;;;;;9.07;100.00;96805.38;4997204;28;20045;-94
2024/01/02 10:10:11;;;;;;;92.72;55.65;;;;;;;9.11;100.00;96801.25;5017176;28;20060;-95
2024/01/02 10:12:56;;;;;;;64.82;33.35;;;;;;;9.14;100.00;96806.06;5013329;28;20474;-96
2024/01/02 10:15:56;;;;;;;30.38;11.40;;;;;;;9.20;100.00;96800.94;5014441;28;20053;-95
2024/01/02 10:18:49;;;;;;;28.63;4.57;;;;;;;9.20;100.00;96807.00;5028861;28;20377;-95
2024/01/02 10:21:29;;;;;;;24.15;4.35;;;;;;;9.22;100.00;96804.16;5008415;28;20068;-96
2024/01/02 10:24:38;;;;;;;27.73;8.25;;;;;;;9.19;100.00;96810.66;5013917;28;20037;-94
2024/01/02 10:27:15;;;;;;;29.85;10.73;;;;;;;9.21;100.00;96818.34;4994199;28;20074;-96
2024/01/02 10:30:06;;;;;;;31.75;10.38;;;;;;;9.22;100.00;96822.59;5013670;28;20500;-95
2024/01/02 10:32:56;;;;;;;25.30;7.68;;;;;;;9.22;100.00;96817.31;5008361;28;20044;-96
2024/01/02 10:35:54;;;;;;;19.67;3.72;;;;;;;9.22;100.00;96826.00;4998109;28;20040;-93
2024/01/02 10:38:26;;;;;;;19.60;2.72;;;;;;;9.17;100.00;96833.81;4997712;28;20037;-94
2024/01/02 10:41:08;;;;;;;22.98;3.10;;;;;;;9.25;100.00;96840.59;5001132;28;20389;-95
2024/01/02 10:44:04;;;;;;;24.95;4.28;;;;;;;9.23;100.00;96838.19;5016077;28;20041;-94
2024/01/02 10:46:50;;;;;;;18.70;4.47;;;;;;;9.26;100.00;96839.56;5011344;28;20572;-94
2024/01/02 10:49:40;;;;;;;18.88;2.92;;;;;;;9.27;100.00;96834.06;4998883;28;20053;-94
2024/01/02 10:52:16;;;;;;;23.27;10.05;;;;;;;9.19;100.00;96834.38;5016294;28;20047;-94
2024/01/02 10:55:07;;;;;;;20.98;3.25;;;;;;;9.25;100.00;96833.47;5011679;28;20099;-94
2024/01/02 10:57:52;;;;;;;15.02;3.08;;;;;;;9.22;100.00;96839.19;5007794;28;20033;-94
2024/01/02 11:00:23;;;;;;;25.70;4.70;;;;;;;9.17;100.00;96842.50;4996383;28;20037;-92
2024/01/02 11:02:57;;;;;;;21.00;4.40;;;;;;;9.19;100.00;96839.63;5024406;28;20485;-94
2024/01/02 11:05:38;;;;;;;18.38;3.88;;;;;;;9.18;100.00;96841.50;4999178;28;20492;-93
2024/01/02 11:08:32;;;;;;;25.33;3.65;;;;;;;9.22;100.00;96855.00;5025380;28;20041;-95
2024/01/02 11:11:08;;;;;;;20.70;4.22;;;;;;;9.21;100.00;96858.66;4985758;28;20045;-95
2024/01/02 11:13:38;;;;;;;11.85;3.78;;;;;;;9.16;100.00;96853.25;5008792;28;20029;-95
2024/01/02 11:16:17;;;;;;;17.50;3.03;;;;;;;9.18;100.00;96853.84;5011828;28;20136;-95
2024/01/02 11:18:54;;;;;;;21.77;3.50;;;;;;;9.20;100.00;96854.44;5019473;28;20029;-95
2024/01/02 11:21:44;;;;;;;15.90;2.50;;;;;;;9.22;100.00;96859.47;5028402;28;20065;-94
2024/01/02 11:24:13;;;;;;;14.45;2.63;;;;;;;9.19;100.00;96858.09;4997850;28;20045;-95
2024/01/02 11:26:44;;;;;;;14.98;2.42;;;;;;;9.15;100.00;96855.13;5013257;28;20473;-94
2024/01/02 11:29:21;;;;;;;19.30;3.40;;;;;;;9.17;100.00;96860.94;5006732;28;20037;-95
2024/01/02 11:31:49;;;;;;;11.50;2.65;;;;;;;9.17;100.00;96862.78;5003312;28;20493;-94
2024/01/02 11:34:59;;;;;;;14.43;2.55;;;;;;;9.20;100.00;96859.72;5012392;28;20414;-94
2024/01/02 11:37:37;;;;;;;9.35;2.78;;;;;;;9.18;100.00;96861.75;5016816;28;20064;-94
2024/01/02 11:40:22;;;;;;;8.80;1.83;;;;;;;9.09;100.00;96852.56;5039525;28;20503;-95
2024/01/02 11:43:08;;;;;;;12.73;2.30;;;;;;;9.10;100.00;96852.34;5029725;28;20041;-94